createdAt,value
2023-01-18T00:01:23.498Z,16.03
2023-01-18T00:03:53.026Z,16.53
2023-01-18T00:06:22.005Z,18.20
2023-01-18T00:08:54.631Z,17.37
2023-01-18T00:11:23.374Z,17.27
2023-01-18T00:13:52.876Z,15.80
2023-01-18T00:16:22.864Z,16.10
2023-01-18T00:18:52.610Z,15.87
2023-01-18T00:21:21.410Z,15.60
2023-01-18T00:23:51.382Z,15.17
2023-01-18T00:26:20.329Z,15.23
2023-01-18T00:28:49.159Z,17.20
2023-01-18T00:31:19.007Z,15.73
2023-01-18T00:33:49.380Z,15.83
2023-01-18T00:36:18.681Z,15.03
2023-01-18T00:38:52.366Z,14.70
2023-01-18T00:41:21.392Z,14.57
2023-01-18T00:43:49.254Z,16.57
2023-01-18T00:46:19.306Z,15.77
2023-01-18T00:48:48.299Z,15.23
2023-01-18T00:51:18.562Z,14.63
2023-01-18T00:53:47.403Z,14.53
2023-01-18T00:56:19.103Z,14.53
2023-01-18T00:58:47.805Z,14.60
2023-01-18T01:01:16.595Z,14.77
2023-01-18T01:04:02.528Z,15.00
2023-01-18T01:06:46.728Z,13.97
2023-01-18T01:09:17.438Z,12.77
2023-01-18T01:12:01.559Z,13.50
2023-01-18T01:14:47.500Z,13.63
2023-01-18T01:17:33.686Z,17.20
2023-01-18T01:20:19.484Z,17.50
2023-01-18T01:23:05.316Z,15.77
2023-01-18T01:25:51.204Z,15.27
2023-01-18T01:28:21.128Z,16.17
2023-01-18T01:30:49.696Z,16.70
2023-01-18T01:33:18.381Z,16.60
2023-01-18T01:35:46.960Z,15.37
2023-01-18T01:38:15.464Z,15.60
2023-01-18T01:40:43.956Z,15.60
2023-01-18T01:43:14.170Z,14.80
2023-01-18T01:45:44.115Z,14.97
2023-01-18T01:48:12.797Z,15.67
2023-01-18T01:50:41.545Z,16.23
2023-01-18T01:53:10.834Z,16.20
2023-01-18T01:55:39.704Z,15.33
2023-01-18T01:58:10.534Z,16.43
2023-01-18T02:00:39.060Z,15.43
2023-01-18T02:03:11.279Z,15.60
2023-01-18T02:05:44.799Z,15.83
2023-01-18T02:08:22.658Z,15.10
2023-01-18T02:10:52.091Z,15.40
2023-01-18T02:13:21.275Z,14.67
2023-01-18T02:16:00.062Z,12.97
2023-01-18T02:18:32.707Z,11.90
2023-01-18T02:21:19.039Z,10.93
2023-01-18T02:24:29.380Z,10.57
2023-01-18T02:27:03.164Z,9.63
2023-01-18T02:29:59.248Z,9.00
2023-01-18T02:32:34.854Z,10.20
2023-01-18T02:35:09.153Z,11.37
2023-01-18T02:37:43.771Z,10.90
2023-01-18T02:40:17.181Z,11.40
2023-01-18T02:43:03.977Z,11.37
2023-01-18T02:45:52.857Z,10.23
2023-01-18T02:48:22.964Z,9.00
2023-01-18T02:50:51.917Z,9.00
2023-01-18T02:53:20.427Z,9.50
2023-01-18T02:55:53.158Z,9.67
2023-01-18T02:58:26.232Z,10.50
2023-01-18T03:01:02.842Z,10.33
2023-01-18T03:03:31.394Z,10.03
2023-01-18T03:06:01.724Z,9.53
2023-01-18T03:08:35.625Z,10.83
2023-01-18T03:11:07.316Z,11.30
2023-01-18T03:13:50.088Z,11.90
2023-01-18T03:16:23.950Z,12.13
2023-01-18T03:19:02.189Z,11.70
2023-01-18T03:21:37.853Z,18.80
2023-01-18T03:24:07.989Z,24.40
2023-01-18T03:26:41.369Z,17.57
2023-01-18T03:29:27.707Z,14.37
2023-01-18T03:32:20.097Z,12.97
2023-01-18T03:34:53.044Z,11.50
2023-01-18T03:37:25.258Z,12.03
2023-01-18T03:39:57.174Z,11.77
2023-01-18T03:42:29.285Z,10.77
2023-01-18T03:45:03.788Z,10.00
2023-01-18T03:47:33.971Z,9.90
2023-01-18T03:50:02.632Z,9.83
2023-01-18T03:52:37.728Z,9.87
2023-01-18T03:55:11.291Z,9.90
2023-01-18T03:57:44.156Z,9.67
2023-01-18T04:00:14.240Z,10.13
2023-01-18T04:02:45.523Z,9.97
2023-01-18T04:05:14.257Z,9.33
2023-01-18T04:07:42.887Z,9.07
2023-01-18T04:10:12.566Z,9.20
2023-01-18T04:12:41.088Z,8.70
2023-01-18T04:15:10.718Z,9.20
2023-01-18T04:17:39.712Z,9.27
2023-01-18T04:20:11.299Z,8.97
2023-01-18T04:22:39.757Z,9.27
2023-01-18T04:25:08.919Z,9.60
2023-01-18T04:27:37.428Z,9.60
2023-01-18T04:30:07.002Z,9.43
2023-01-18T04:32:35.623Z,8.87
2023-01-18T04:35:04.252Z,11.80
2023-01-18T04:37:34.453Z,12.50
2023-01-18T04:40:03.277Z,11.13
2023-01-18T04:42:31.788Z,8.73
2023-01-18T04:45:00.976Z,9.17
2023-01-18T04:47:30.150Z,9.20
2023-01-18T04:49:58.659Z,7.77
2023-01-18T04:52:27.789Z,9.37
2023-01-18T04:54:57.754Z,15.87
2023-01-18T04:57:26.273Z,14.20
2023-01-18T04:59:54.867Z,11.03
2023-01-18T05:02:23.443Z,8.17
2023-01-18T05:04:51.943Z,7.37
2023-01-18T05:07:20.465Z,6.87
2023-01-18T05:09:49.008Z,6.27
2023-01-18T05:12:18.977Z,6.53
2023-01-18T05:14:47.510Z,6.50
2023-01-18T05:17:16.248Z,7.67
2023-01-18T05:19:46.733Z,7.33
2023-01-18T05:22:15.403Z,7.57
2023-01-18T05:24:44.039Z,7.63
2023-01-18T05:27:13.381Z,7.90
2023-01-18T05:29:43.995Z,8.33
2023-01-18T05:32:12.765Z,8.63
2023-01-18T05:34:41.271Z,8.83
2023-01-18T05:37:09.792Z,8.37
2023-01-18T05:39:38.508Z,8.70
2023-01-18T05:42:07.126Z,8.90
2023-01-18T05:44:35.915Z,10.33
2023-01-18T05:47:05.991Z,14.27
2023-01-18T05:49:34.587Z,13.30
2023-01-18T05:52:03.101Z,11.30
2023-01-18T05:54:31.695Z,9.50
2023-01-18T05:57:00.296Z,9.97
2023-01-18T05:59:28.868Z,9.73
2023-01-18T06:01:57.489Z,9.83
2023-01-18T06:04:27.418Z,9.47
2023-01-18T06:06:56.073Z,8.87
2023-01-18T06:09:24.540Z,9.03
2023-01-18T06:11:53.057Z,10.10
2023-01-18T06:14:21.527Z,8.73
2023-01-18T06:16:50.088Z,14.80
2023-01-18T06:19:18.905Z,17.53
2023-01-18T06:21:48.812Z,12.70
2023-01-18T06:24:17.361Z,10.57
2023-01-18T06:26:45.837Z,9.93
2023-01-18T06:29:14.316Z,10.93
2023-01-18T06:31:42.943Z,15.40
2023-01-18T06:34:11.435Z,14.80
2023-01-18T06:36:40.661Z,12.50
2023-01-18T06:39:10.676Z,10.87
2023-01-18T06:41:39.237Z,11.20
2023-01-18T06:44:07.763Z,10.27
2023-01-18T06:46:36.312Z,9.63
2023-01-18T06:49:04.858Z,10.23
2023-01-18T06:51:33.428Z,10.30
2023-01-18T06:54:01.977Z,14.47
2023-01-18T06:56:32.022Z,11.70
2023-01-18T06:59:01.116Z,12.23
2023-01-18T07:01:29.960Z,13.43
2023-01-18T07:03:58.524Z,12.70
2023-01-18T07:06:27.376Z,12.60
2023-01-18T07:08:55.891Z,11.97
2023-01-18T07:11:24.579Z,16.00
2023-01-18T07:13:54.489Z,20.63
2023-01-18T07:16:22.981Z,17.00
2023-01-18T07:18:51.530Z,14.87
2023-01-18T07:21:22.945Z,16.03
2023-01-18T07:23:52.231Z,15.07
2023-01-18T07:26:20.803Z,17.53
2023-01-18T07:28:49.503Z,15.93
2023-01-18T07:31:20.253Z,15.83
2023-01-18T07:33:48.983Z,15.23
2023-01-18T07:36:17.740Z,14.57
2023-01-18T07:38:47.282Z,13.50
2023-01-18T07:41:16.997Z,14.03
2023-01-18T07:43:46.046Z,23.70
2023-01-18T07:46:17.016Z,11.37
2023-01-18T07:48:47.883Z,10.50
2023-01-18T07:51:16.819Z,10.33
2023-01-18T07:53:45.689Z,10.60
2023-01-18T07:56:16.121Z,9.47
2023-01-18T07:58:45.385Z,9.93
2023-01-18T08:01:15.609Z,10.23
2023-01-18T08:03:47.242Z,9.93
2023-01-18T08:06:18.041Z,9.50
2023-01-18T08:08:46.696Z,9.40
2023-01-18T08:11:15.273Z,9.67
2023-01-18T08:13:43.917Z,10.27
2023-01-18T08:16:13.116Z,10.50
2023-01-18T08:18:41.791Z,10.33
2023-01-18T08:21:12.512Z,9.70
2023-01-18T08:23:41.300Z,12.17
2023-01-18T08:26:10.770Z,13.83
2023-01-18T08:28:39.476Z,12.17
2023-01-18T08:31:10.933Z,11.07
2023-01-18T08:33:40.971Z,15.43
2023-01-18T08:36:14.988Z,11.93
2023-01-18T08:38:43.690Z,12.40
2023-01-18T08:41:12.268Z,11.03
2023-01-18T08:43:40.833Z,10.83
2023-01-18T08:46:09.493Z,10.50
2023-01-18T08:48:38.164Z,10.47
2023-01-18T08:51:07.081Z,10.57
2023-01-18T08:53:36.963Z,11.17
2023-01-18T08:56:06.933Z,10.70
2023-01-18T08:58:35.487Z,10.33
2023-01-18T09:01:06.712Z,10.70
2023-01-18T09:03:35.482Z,10.37
2023-01-18T09:06:04.909Z,10.80
2023-01-18T09:08:33.419Z,11.47
2023-01-18T09:11:04.788Z,12.40
2023-01-18T09:13:33.633Z,12.13
2023-01-18T09:16:02.599Z,12.10
2023-01-18T09:18:31.226Z,11.27
2023-01-18T09:21:00.027Z,12.10
2023-01-18T09:23:28.640Z,13.27
2023-01-18T09:26:06.123Z,12.03
2023-01-18T09:28:35.104Z,11.43
2023-01-18T09:31:04.481Z,11.70
2023-01-18T09:33:37.911Z,10.57
2023-01-18T09:36:09.945Z,12.40
2023-01-18T09:38:39.737Z,13.07
2023-01-18T09:41:22.954Z,14.60
2023-01-18T09:43:53.288Z,14.00
2023-01-18T09:46:23.221Z,13.37
2023-01-18T09:48:56.315Z,14.00
2023-01-18T09:51:29.241Z,14.13
2023-01-18T09:54:09.990Z,16.20
2023-01-18T09:56:45.065Z,14.70
2023-01-18T09:59:20.967Z,15.47
2023-01-18T10:01:50.477Z,13.30
2023-01-18T10:04:23.494Z,13.60
2023-01-18T10:06:56.385Z,14.57
2023-01-18T10:09:27.689Z,16.00
2023-01-18T10:12:00.690Z,22.63
2023-01-18T10:14:42.475Z,18.23
2023-01-18T10:17:13.957Z,14.33
2023-01-18T10:19:42.829Z,13.40
2023-01-18T10:22:19.711Z,13.63
2023-01-18T10:24:52.695Z,12.10
2023-01-18T10:27:49.534Z,14.43
2023-01-18T10:30:29.456Z,13.93
2023-01-18T10:33:00.040Z,13.40
2023-01-18T10:35:33.333Z,13.20
2023-01-18T10:38:04.010Z,13.87
2023-01-18T10:40:32.536Z,14.23
2023-01-18T10:43:04.415Z,15.60
2023-01-18T10:45:34.986Z,16.60
2023-01-18T10:48:21.422Z,16.50
2023-01-18T10:50:53.360Z,13.33
2023-01-18T10:53:28.333Z,12.67
2023-01-18T10:56:00.487Z,14.63
2023-01-18T10:58:33.759Z,12.97
2023-01-18T11:01:03.801Z,13.30
2023-01-18T11:03:38.095Z,19.97
2023-01-18T11:06:08.361Z,16.30
2023-01-18T11:08:37.277Z,13.60
2023-01-18T11:11:07.279Z,12.30
2023-01-18T11:13:43.452Z,12.77
2023-01-18T11:16:16.154Z,12.67
2023-01-18T11:18:59.451Z,12.00
2023-01-18T11:21:31.607Z,11.57
2023-01-18T11:24:00.261Z,12.17
2023-01-18T11:26:29.627Z,12.63
2023-01-18T11:29:01.707Z,11.80
2023-01-18T11:31:32.076Z,11.20
2023-01-18T11:34:01.616Z,10.37
2023-01-18T11:36:38.358Z,10.67
2023-01-18T11:39:24.771Z,11.10
2023-01-18T11:41:54.261Z,11.27
2023-01-18T11:44:25.761Z,10.63
2023-01-18T11:46:55.706Z,10.93
2023-01-18T11:49:32.634Z,10.23
2023-01-18T11:52:03.068Z,9.83
2023-01-18T11:54:36.595Z,10.50
2023-01-18T11:57:06.915Z,10.20
2023-01-18T11:59:38.357Z,10.80
2023-01-18T12:02:35.233Z,9.87
2023-01-18T12:05:22.503Z,11.07
2023-01-18T12:08:10.862Z,10.63
2023-01-18T12:10:45.686Z,11.47
2023-01-18T12:13:30.958Z,12.30
2023-01-18T12:16:09.574Z,11.60
2023-01-18T12:19:03.737Z,10.80
2023-01-18T12:21:38.539Z,10.67
2023-01-18T12:24:20.483Z,11.90
2023-01-18T12:26:52.416Z,11.40
2023-01-18T12:29:30.647Z,11.77
2023-01-18T12:32:11.107Z,10.97
2023-01-18T12:34:42.753Z,13.83
2023-01-18T12:37:24.067Z,13.07
2023-01-18T12:39:57.028Z,14.20
2023-01-18T12:42:34.690Z,14.40
2023-01-18T12:45:19.503Z,13.50
2023-01-18T12:47:59.052Z,12.37
2023-01-18T12:50:30.238Z,12.97
2023-01-18T12:53:00.932Z,12.83
2023-01-18T12:55:31.856Z,14.53
2023-01-18T12:58:01.565Z,14.10
2023-01-18T13:00:35.498Z,13.00
2023-01-18T13:03:12.804Z,13.57
2023-01-18T13:05:51.011Z,12.70
2023-01-18T13:08:26.313Z,13.27
2023-01-18T13:10:56.834Z,12.83
2023-01-18T13:13:28.370Z,12.17
2023-01-18T13:16:03.379Z,11.90
2023-01-18T13:18:38.051Z,11.00
2023-01-18T13:21:18.227Z,11.03
2023-01-18T13:23:55.568Z,11.50
2023-01-18T13:26:27.312Z,11.27
2023-01-18T13:29:17.932Z,13.13
2023-01-18T13:31:47.603Z,12.10
2023-01-18T13:34:30.289Z,12.53
2023-01-18T13:37:13.331Z,11.80
2023-01-18T13:39:46.315Z,13.60
2023-01-18T13:42:27.044Z,15.30
2023-01-18T13:45:15.427Z,18.60
2023-01-18T13:47:58.643Z,11.87
2023-01-18T13:50:48.520Z,11.97
2023-01-18T13:53:25.147Z,10.00
2023-01-18T13:56:34.370Z,11.27
2023-01-18T13:59:05.795Z,9.30
2023-01-18T14:01:36.574Z,11.27
2023-01-18T14:04:24.978Z,11.43
2023-01-18T14:06:56.132Z,14.13
2023-01-18T14:09:46.228Z,14.30
2023-01-18T14:12:15.037Z,13.10
2023-01-18T14:14:54.548Z,12.40
2023-01-18T14:17:25.280Z,12.20
2023-01-18T14:20:08.713Z,12.97
2023-01-18T14:22:57.416Z,14.40
2023-01-18T14:25:52.052Z,13.10
2023-01-18T14:28:24.822Z,12.43
2023-01-18T14:30:57.011Z,11.83
2023-01-18T14:33:28.196Z,12.80
2023-01-18T14:35:58.744Z,11.43
2023-01-18T14:38:29.204Z,28.03
2023-01-18T14:40:59.459Z,18.40
2023-01-18T14:43:32.267Z,15.67
2023-01-18T14:46:02.690Z,15.70
2023-01-18T14:48:34.584Z,15.63
2023-01-18T14:51:04.979Z,15.40
2023-01-18T14:53:39.658Z,14.40
2023-01-18T14:56:11.044Z,14.77
2023-01-18T14:58:42.591Z,16.57
2023-01-18T15:01:27.212Z,15.53
2023-01-18T15:03:56.194Z,19.47
2023-01-18T15:06:34.425Z,15.83
2023-01-18T15:09:07.204Z,14.13
2023-01-18T15:11:36.836Z,14.33
2023-01-18T15:14:09.103Z,14.50
2023-01-18T15:16:37.957Z,14.57
2023-01-18T15:19:06.973Z,13.77
2023-01-18T15:21:36.867Z,12.87
2023-01-18T15:24:09.062Z,14.73
2023-01-18T15:26:41.863Z,17.47
2023-01-18T15:29:16.133Z,14.63
2023-01-18T15:31:50.855Z,19.00
2023-01-18T15:34:24.841Z,13.10
2023-01-18T15:36:53.503Z,13.20
2023-01-18T15:39:23.529Z,14.00
2023-01-18T15:41:52.367Z,13.80
2023-01-18T15:44:35.409Z,12.60
2023-01-18T15:47:04.263Z,11.20
2023-01-18T15:49:32.833Z,10.60
2023-01-18T15:52:02.991Z,11.43
2023-01-18T15:54:32.883Z,10.27
2023-01-18T15:57:13.970Z,11.43
2023-01-18T15:59:43.320Z,10.27
2023-01-18T16:02:20.640Z,11.00
2023-01-18T16:04:49.285Z,10.73
2023-01-18T16:07:38.608Z,12.00
2023-01-18T16:10:30.488Z,12.47
2023-01-18T16:13:23.865Z,12.90
2023-01-18T16:16:18.860Z,11.90
2023-01-18T16:18:50.022Z,11.50
2023-01-18T16:21:32.805Z,12.07
2023-01-18T16:24:01.399Z,12.30
2023-01-18T16:26:31.892Z,11.60
2023-01-18T16:29:07.909Z,13.07
2023-01-18T16:31:39.066Z,11.83
2023-01-18T16:34:19.386Z,14.73
2023-01-18T16:36:48.168Z,13.10
2023-01-18T16:39:16.680Z,14.07
2023-01-18T16:41:52.153Z,13.83
2023-01-18T16:44:21.634Z,12.23
2023-01-18T16:46:50.568Z,10.90
2023-01-18T16:49:19.988Z,9.93
2023-01-18T16:51:50.036Z,10.83
2023-01-18T16:54:19.255Z,10.73
2023-01-18T16:56:49.718Z,10.73
2023-01-18T16:59:21.717Z,10.03
2023-01-18T17:01:51.514Z,14.00
2023-01-18T17:04:20.164Z,15.00
2023-01-18T17:06:48.728Z,13.30
2023-01-18T17:09:22.931Z,12.87
2023-01-18T17:11:53.238Z,12.10
2023-01-18T17:14:22.701Z,13.63
2023-01-18T17:16:51.309Z,12.83
2023-01-18T17:19:21.235Z,11.63
2023-01-18T17:21:50.862Z,10.80
2023-01-18T17:24:21.156Z,11.50
2023-01-18T17:26:50.078Z,12.50
2023-01-18T17:29:21.963Z,12.30
2023-01-18T17:31:53.001Z,12.33
2023-01-18T17:34:27.739Z,11.27
2023-01-18T17:36:58.239Z,12.73
2023-01-18T17:39:42.464Z,16.20
2023-01-18T17:42:19.159Z,12.30
2023-01-18T17:45:03.004Z,11.70
2023-01-18T17:47:32.124Z,11.07
2023-01-18T17:50:01.088Z,10.20
2023-01-18T17:52:29.703Z,11.17
2023-01-18T17:54:58.416Z,10.13
2023-01-18T17:57:28.764Z,10.97
2023-01-18T17:59:58.697Z,10.47
2023-01-18T18:02:27.922Z,10.03
2023-01-18T18:04:57.007Z,10.00
2023-01-18T18:07:25.574Z,10.70
2023-01-18T18:09:58.248Z,11.03
2023-01-18T18:12:26.796Z,10.90
2023-01-18T18:14:56.025Z,11.03
2023-01-18T18:17:27.309Z,11.97
2023-01-18T18:19:55.938Z,13.40
2023-01-18T18:22:24.839Z,12.03
2023-01-18T18:24:53.703Z,12.17
2023-01-18T18:27:24.839Z,11.70
2023-01-18T18:29:55.208Z,12.27
2023-01-18T18:32:25.190Z,18.77
2023-01-18T18:34:53.773Z,27.43
2023-01-18T18:37:23.538Z,24.70
2023-01-18T18:39:52.070Z,15.43
2023-01-18T18:42:20.707Z,12.27
2023-01-18T18:44:49.205Z,9.47
2023-01-18T18:47:17.727Z,9.73
2023-01-18T18:49:47.623Z,9.57
2023-01-18T18:52:16.168Z,7.50
2023-01-18T18:54:44.796Z,7.07
2023-01-18T18:57:13.513Z,6.83
2023-01-18T18:59:42.049Z,12.53
2023-01-18T19:02:14.068Z,15.77
2023-01-18T19:04:43.767Z,13.67
2023-01-18T19:07:13.740Z,11.90
2023-01-18T19:09:42.319Z,10.20
2023-01-18T19:12:10.831Z,9.57
2023-01-18T19:14:39.392Z,10.20
2023-01-18T19:17:09.086Z,11.13
2023-01-18T19:19:37.617Z,10.87
2023-01-18T19:22:06.186Z,10.97
2023-01-18T19:24:36.897Z,10.93
2023-01-18T19:27:05.959Z,11.27
2023-01-18T19:29:34.473Z,11.37
2023-01-18T19:32:03.007Z,11.33
2023-01-18T19:34:31.609Z,12.40
2023-01-18T19:37:00.563Z,13.33
2023-01-18T19:39:29.183Z,13.57
2023-01-18T19:41:59.154Z,13.63
2023-01-18T19:44:27.856Z,15.00
2023-01-18T19:46:57.118Z,18.33
2023-01-18T19:49:26.478Z,16.83
2023-01-18T19:51:55.784Z,14.33
2023-01-18T19:54:24.696Z,13.10
2023-01-18T19:56:53.177Z,13.83
2023-01-18T19:59:23.170Z,14.40
2023-01-18T20:01:52.395Z,13.17
2023-01-18T20:04:21.239Z,13.30
2023-01-18T20:06:50.219Z,15.43
2023-01-18T20:09:21.197Z,20.17
2023-01-18T20:11:51.917Z,19.03
2023-01-18T20:14:20.568Z,22.23
2023-01-18T20:16:50.973Z,19.33
2023-01-18T20:19:19.620Z,14.53
2023-01-18T20:21:48.423Z,13.53
2023-01-18T20:24:17.950Z,10.87
2023-01-18T20:26:46.684Z,10.87
2023-01-18T20:29:15.277Z,10.47
2023-01-18T20:31:49.651Z,10.53
2023-01-18T20:34:20.102Z,10.70
2023-01-18T20:36:50.207Z,10.53
2023-01-18T20:39:19.087Z,9.97
2023-01-18T20:41:49.925Z,9.93
2023-01-18T20:44:18.446Z,11.17
2023-01-18T20:46:47.576Z,11.13
2023-01-18T20:49:20.577Z,13.77
2023-01-18T20:51:52.365Z,17.33
2023-01-18T20:54:21.112Z,15.43
2023-01-18T20:56:49.629Z,14.57
2023-01-18T20:59:18.548Z,13.90
2023-01-18T21:01:47.922Z,13.85
2023-01-18T21:04:16.555Z,12.67
2023-01-18T21:06:46.608Z,11.17
2023-01-18T21:09:16.633Z,11.10
2023-01-18T21:11:45.341Z,9.87
2023-01-18T21:14:13.871Z,10.97
2023-01-18T21:16:42.547Z,12.67
2023-01-18T21:19:11.310Z,12.20
2023-01-18T21:21:40.219Z,11.60
2023-01-18T21:24:09.127Z,11.87
2023-01-18T21:26:39.086Z,12.80
2023-01-18T21:29:07.704Z,13.40
2023-01-18T21:31:36.318Z,13.03
2023-01-18T21:34:04.838Z,14.00
2023-01-18T21:36:33.400Z,15.87
2023-01-18T21:39:01.909Z,15.77
2023-01-18T21:41:47.633Z,15.30
2023-01-18T21:44:34.931Z,12.77
2023-01-18T21:47:03.602Z,11.30
2023-01-18T21:52:58.386Z,12.50
2023-01-18T21:55:26.877Z,12.07
2023-01-18T21:58:13.012Z,12.30
2023-01-18T22:00:43.516Z,11.00
2023-01-18T22:03:13.158Z,11.77
2023-01-18T22:05:41.680Z,12.10
2023-01-18T22:08:10.663Z,16.40
2023-01-18T22:10:39.180Z,27.70
2023-01-18T22:13:07.732Z,17.87
2023-01-18T22:15:36.250Z,14.13
2023-01-18T22:18:06.647Z,10.77
2023-01-18T22:20:35.322Z,11.27
2023-01-18T22:23:03.831Z,9.80
2023-01-18T22:25:32.336Z,6.97
2023-01-18T22:28:01.172Z,6.43
2023-01-18T22:30:29.952Z,7.67
2023-01-18T22:32:58.409Z,8.73
2023-01-18T22:35:28.298Z,8.10
2023-01-18T22:37:56.858Z,8.03
2023-01-18T22:40:25.449Z,7.93
2023-01-18T22:42:53.983Z,8.23
2023-01-18T22:45:22.513Z,9.83
2023-01-18T22:47:50.991Z,9.57
2023-01-18T22:50:19.808Z,9.93
2023-01-18T22:52:50.010Z,10.00
2023-01-18T22:55:18.534Z,9.60
2023-01-18T22:57:47.050Z,9.80
2023-01-18T23:00:16.533Z,9.17
2023-01-18T23:02:45.052Z,9.40
2023-01-18T23:05:13.597Z,9.13
2023-01-18T23:07:42.203Z,9.10
2023-01-18T23:10:12.380Z,9.67
2023-01-18T23:12:40.902Z,10.53
2023-01-18T23:15:28.723Z,10.27
2023-01-18T23:17:57.488Z,10.40
2023-01-18T23:20:26.711Z,9.50
2023-01-18T23:22:55.237Z,9.30
2023-01-18T23:25:25.165Z,8.97
2023-01-18T23:27:53.764Z,7.60
2023-01-18T23:30:22.444Z,7.77
2023-01-18T23:32:50.941Z,7.47
2023-01-18T23:35:19.570Z,7.77
2023-01-18T23:37:48.071Z,7.23
2023-01-18T23:40:34.269Z,6.90
2023-01-18T23:43:21.679Z,6.90
2023-01-18T23:46:07.420Z,6.67
2023-01-18T23:48:53.557Z,7.07
2023-01-18T23:51:39.265Z,6.73
2023-01-18T23:54:19.624Z,6.53
2023-01-18T23:56:48.614Z,6.73
2023-01-18T23:59:18.504Z,6.70
